createdAt,value
2019-01-11T00:02:18.775Z,20.05
2019-01-11T00:04:48.104Z,20.40
2019-01-11T00:07:17.698Z,18.92
2019-01-11T00:09:46.955Z,22.90
2019-01-11T00:12:16.236Z,23.42
2019-01-11T00:14:45.572Z,26.02
2019-01-11T00:17:14.903Z,24.37
2019-01-11T00:19:44.234Z,25.30
2019-01-11T00:22:13.546Z,24.80
2019-01-11T00:24:42.785Z,25.60
2019-01-11T00:27:12.082Z,24.75
2019-01-11T00:29:41.442Z,21.93
2019-01-11T00:32:11.033Z,21.85
2019-01-11T00:34:40.439Z,22.35
2019-01-11T00:37:09.774Z,22.20
2019-01-11T00:39:39.078Z,24.75
2019-01-11T00:42:08.386Z,24.57
2019-01-11T00:44:37.692Z,24.85
2019-01-11T00:47:07.312Z,28.25
2019-01-11T00:49:36.627Z,27.73
2019-01-11T00:52:05.918Z,28.77
2019-01-11T00:54:35.253Z,26.87
2019-01-11T00:57:04.525Z,28.05
2019-01-11T00:59:33.851Z,27.98
2019-01-11T01:02:03.152Z,29.27
2019-01-11T01:04:32.470Z,25.60
2019-01-11T01:07:01.805Z,29.15
2019-01-11T01:09:31.281Z,27.37
2019-01-11T01:12:00.795Z,29.63
2019-01-11T01:14:30.118Z,26.77
2019-01-11T01:16:59.463Z,25.95
2019-01-11T01:19:28.777Z,26.70
2019-01-11T01:21:58.138Z,24.40
2019-01-11T01:24:27.574Z,25.45
2019-01-11T01:26:56.899Z,27.62
2019-01-11T01:29:26.246Z,24.27
2019-01-11T01:31:55.580Z,27.20
2019-01-11T01:34:24.859Z,27.73
2019-01-11T01:36:54.222Z,25.72
2019-01-11T01:39:24.155Z,28.85
2019-01-11T01:41:53.506Z,31.20
2019-01-11T01:44:22.819Z,27.07
2019-01-11T01:46:52.454Z,28.80
2019-01-11T01:49:26.512Z,26.42
2019-01-11T01:51:54.160Z,23.77
2019-01-11T01:54:23.465Z,26.23
2019-01-11T01:56:53.094Z,27.98
2019-01-11T01:59:22.535Z,24.63
2019-01-11T02:01:51.882Z,23.52
2019-01-11T02:04:39.554Z,23.25
2019-01-11T02:07:08.870Z,25.97
2019-01-11T02:09:38.190Z,23.75
2019-01-11T02:12:07.588Z,24.35
2019-01-11T02:14:36.896Z,27.93
2019-01-11T02:17:06.193Z,23.98
2019-01-11T02:19:35.855Z,23.98
2019-01-11T02:22:05.412Z,23.75
2019-01-11T02:24:34.726Z,25.25
2019-01-11T02:27:04.063Z,22.02
2019-01-11T02:29:33.710Z,25.52
2019-01-11T02:32:03.029Z,22.22
2019-01-11T02:34:32.288Z,22.82
2019-01-11T02:37:01.638Z,22.52
2019-01-11T02:39:30.935Z,22.87
2019-01-11T02:42:00.251Z,22.80
2019-01-11T02:44:29.511Z,21.23
2019-01-11T02:46:58.828Z,18.75
2019-01-11T02:49:28.450Z,18.80
2019-01-11T02:52:16.521Z,18.57
2019-01-11T02:54:45.834Z,22.37
2019-01-11T02:57:15.131Z,18.95
2019-01-11T02:59:44.474Z,17.98
2019-01-11T03:02:14.111Z,19.92
2019-01-11T03:04:43.443Z,22.27
2019-01-11T03:07:12.731Z,20.30
2019-01-11T03:09:42.033Z,22.25
2019-01-11T03:12:11.328Z,20.23
2019-01-11T03:14:40.658Z,21.52
2019-01-11T03:17:10.182Z,21.77
2019-01-11T03:19:39.560Z,19.00
2019-01-11T03:22:08.869Z,22.32
2019-01-11T03:24:38.479Z,21.70
2019-01-11T03:27:07.807Z,19.70
2019-01-11T03:29:37.467Z,22.55
2019-01-11T03:32:06.819Z,26.62
2019-01-11T03:34:40.853Z,20.20
2019-01-11T03:37:10.327Z,22.00
2019-01-11T03:39:40.118Z,22.45
2019-01-11T03:42:12.448Z,19.35
2019-01-11T03:44:41.954Z,18.10
2019-01-11T03:47:11.487Z,19.70
2019-01-11T03:49:41.047Z,22.02
2019-01-11T03:52:10.558Z,19.60
2019-01-11T03:54:40.259Z,23.73
2019-01-11T03:57:09.754Z,19.90
2019-01-11T03:59:39.179Z,19.50
2019-01-11T04:02:08.956Z,16.90
2019-01-11T04:04:38.480Z,18.17
2019-01-11T04:07:07.956Z,17.23
2019-01-11T04:09:37.495Z,18.35
2019-01-11T04:12:06.945Z,20.30
2019-01-11T04:14:36.369Z,19.48
2019-01-11T04:17:05.878Z,17.85
2019-01-11T04:19:35.769Z,20.17
2019-01-11T04:22:22.352Z,19.23
2019-01-11T04:25:11.243Z,19.42
2019-01-11T04:27:40.712Z,19.40
2019-01-11T04:30:16.218Z,21.90
2019-01-11T04:32:45.702Z,20.95
2019-01-11T04:35:15.155Z,23.25
2019-01-11T04:37:45.712Z,21.68
2019-01-11T04:40:17.566Z,23.67
2019-01-11T04:42:47.228Z,23.02
2019-01-11T04:45:16.622Z,21.70
2019-01-11T04:47:46.074Z,18.82
2019-01-11T04:50:18.228Z,18.50
2019-01-11T04:52:47.682Z,18.02
2019-01-11T04:55:17.464Z,18.85
2019-01-11T04:57:46.999Z,20.08
2019-01-11T05:00:18.999Z,21.27
2019-01-11T05:02:48.559Z,18.73
2019-01-11T05:05:18.182Z,17.77
2019-01-11T05:07:47.639Z,20.95
2019-01-11T05:10:18.799Z,21.10
2019-01-11T05:12:48.241Z,17.90
2019-01-11T05:15:17.783Z,19.87
2019-01-11T05:17:47.469Z,20.15
2019-01-11T05:20:17.930Z,19.65
2019-01-11T05:22:47.715Z,21.60
2019-01-11T05:25:17.233Z,18.17
2019-01-11T05:27:47.055Z,18.35
2019-01-11T05:30:18.273Z,17.90
2019-01-11T05:32:47.838Z,18.42
2019-01-11T05:35:17.400Z,19.50
2019-01-11T05:37:46.933Z,19.98
2019-01-11T05:40:20.089Z,24.30
2019-01-11T05:42:49.535Z,19.48
2019-01-11T05:45:19.502Z,17.37
2019-01-11T05:47:49.001Z,19.92
2019-01-11T05:50:24.315Z,18.30
2019-01-11T05:52:51.879Z,20.75
2019-01-11T05:55:44.449Z,19.55
2019-01-11T05:58:36.448Z,20.65
2019-01-11T06:01:06.081Z,19.60
2019-01-11T06:03:35.570Z,20.80
2019-01-11T06:06:06.608Z,22.00
2019-01-11T06:08:36.560Z,21.90
2019-01-11T06:11:06.267Z,21.50
2019-01-11T06:13:35.823Z,22.58
2019-01-11T06:16:05.975Z,19.48
2019-01-11T06:18:35.569Z,19.90
2019-01-11T06:21:05.184Z,17.73
2019-01-11T06:23:34.664Z,19.55
2019-01-11T06:26:04.594Z,15.63
2019-01-11T06:28:34.229Z,18.02
2019-01-11T06:31:03.856Z,19.10
2019-01-11T06:33:33.349Z,16.50
2019-01-11T06:36:02.862Z,16.67
2019-01-11T06:38:32.464Z,16.25
2019-01-11T06:41:01.953Z,16.12
2019-01-11T06:43:31.488Z,15.08
2019-01-11T06:46:01.102Z,16.32
2019-01-11T06:48:40.670Z,15.63
2019-01-11T06:51:10.444Z,17.85
2019-01-11T06:53:39.940Z,21.82
2019-01-11T06:56:09.419Z,18.15
2019-01-11T06:58:38.940Z,15.98
2019-01-11T07:01:08.435Z,18.00
2019-01-11T07:03:37.934Z,20.10
2019-01-11T07:06:07.471Z,21.15
2019-01-11T07:08:36.964Z,15.60
2019-01-11T07:11:06.434Z,16.40
2019-01-11T07:13:36.360Z,15.78
2019-01-11T07:16:07.025Z,18.57
2019-01-11T07:18:36.635Z,15.18
2019-01-11T07:21:06.186Z,17.42
2019-01-11T07:23:35.659Z,16.70
2019-01-11T07:26:05.476Z,17.70
2019-01-11T07:28:34.914Z,17.20
2019-01-11T07:31:13.659Z,17.27
2019-01-11T07:33:43.225Z,19.00
2019-01-11T07:36:30.160Z,17.60
2019-01-11T07:38:59.655Z,24.90
2019-01-11T07:41:29.219Z,17.12
2019-01-11T07:43:58.912Z,15.13
2019-01-11T07:46:28.343Z,18.85
2019-01-11T07:48:57.860Z,15.00
2019-01-11T07:51:27.403Z,18.67
2019-01-11T07:53:57.000Z,18.85
2019-01-11T07:56:26.502Z,17.95
2019-01-11T07:58:55.985Z,21.75
2019-01-11T08:01:26.739Z,21.65
2019-01-11T08:03:56.219Z,19.80
2019-01-11T08:06:25.892Z,16.70
2019-01-11T08:08:55.399Z,17.73
2019-01-11T08:11:25.171Z,15.68
2019-01-11T08:13:54.623Z,14.80
2019-01-11T08:16:24.108Z,17.32
2019-01-11T08:18:53.751Z,15.85
2019-01-11T08:21:23.329Z,15.53
2019-01-11T08:23:52.799Z,15.90
2019-01-11T08:26:22.612Z,16.67
2019-01-11T08:28:52.151Z,14.55
2019-01-11T08:31:21.631Z,14.23
2019-01-11T08:33:51.232Z,13.60
2019-01-11T08:36:20.719Z,14.10
2019-01-11T08:38:50.261Z,14.47
2019-01-11T08:41:19.940Z,16.97
2019-01-11T08:43:49.514Z,13.48
2019-01-11T08:46:19.207Z,18.40
2019-01-11T08:48:49.241Z,15.98
2019-01-11T08:51:18.769Z,18.85
2019-01-11T08:53:48.227Z,19.45
2019-01-11T09:01:36.320Z,16.45
2019-01-11T09:04:06.311Z,15.93
2019-01-11T09:06:35.837Z,17.40
2019-01-11T09:09:08.196Z,16.87
2019-01-11T09:11:37.915Z,17.60
2019-01-11T09:14:09.115Z,17.10
2019-01-11T09:16:38.828Z,17.73
2019-01-11T09:19:09.467Z,15.00
2019-01-11T09:21:41.691Z,14.90
2019-01-11T09:24:10.506Z,17.02
2019-01-11T09:26:40.218Z,18.32
2019-01-11T09:29:09.836Z,16.25
2019-01-11T09:31:39.469Z,23.47
2019-01-11T09:34:09.137Z,17.00
2019-01-11T09:36:39.037Z,20.85
2019-01-11T09:39:09.669Z,17.80
2019-01-11T09:41:39.526Z,19.35
2019-01-11T09:44:09.208Z,22.65
2019-01-11T09:46:39.064Z,23.25
2019-01-11T09:49:08.946Z,22.05
2019-01-11T09:51:38.773Z,21.35
2019-01-11T09:54:08.598Z,20.85
2019-01-11T09:56:38.695Z,26.60
2019-01-11T09:59:08.379Z,19.95
2019-01-11T10:01:38.034Z,21.70
2019-01-11T10:04:09.417Z,19.85
2019-01-11T10:06:44.877Z,21.97
2019-01-11T10:09:14.542Z,26.27
2019-01-11T10:11:44.350Z,22.87
2019-01-11T10:14:14.000Z,21.20
2019-01-11T10:16:43.943Z,20.00
2019-01-11T10:19:13.768Z,21.42
2019-01-11T10:21:43.460Z,24.90
2019-01-11T10:24:13.202Z,21.07
2019-01-11T10:26:42.924Z,21.52
2019-01-11T10:29:13.016Z,20.32
2019-01-11T10:31:42.708Z,22.52
2019-01-11T10:34:12.416Z,22.52
2019-01-11T10:36:42.879Z,23.18
2019-01-11T10:39:13.364Z,19.55
2019-01-11T10:41:43.512Z,21.77
2019-01-11T10:44:13.705Z,20.80
2019-01-11T10:46:48.998Z,21.48
2019-01-11T10:49:16.060Z,20.62
2019-01-11T10:51:45.711Z,19.20
2019-01-11T10:54:25.633Z,21.75
2019-01-11T10:56:55.241Z,20.82
2019-01-11T10:59:24.894Z,27.77
2019-01-11T11:01:54.467Z,24.32
2019-01-11T11:04:24.012Z,23.73
2019-01-11T11:06:53.786Z,20.50
2019-01-11T11:09:23.472Z,23.15
2019-01-11T11:11:53.645Z,30.02
2019-01-11T11:14:23.341Z,26.52
2019-01-11T11:16:52.952Z,24.87
2019-01-11T11:19:22.677Z,25.20
2019-01-11T11:21:52.304Z,26.85
2019-01-11T11:24:22.540Z,30.92
2019-01-11T11:26:53.251Z,33.38
2019-01-11T11:29:22.905Z,35.13
2019-01-11T11:31:52.771Z,27.80
2019-01-11T11:34:27.637Z,22.90
2019-01-11T11:36:58.520Z,27.10
2019-01-11T11:39:28.155Z,26.82
2019-01-11T11:41:57.961Z,25.25
2019-01-11T11:44:27.777Z,24.67
2019-01-11T11:46:58.058Z,25.72
2019-01-11T11:49:27.689Z,25.57
2019-01-11T11:51:57.445Z,25.17
2019-01-11T11:54:27.159Z,22.70
2019-01-11T11:56:56.953Z,24.98
2019-01-11T11:59:26.749Z,22.70
2019-01-11T12:01:56.457Z,22.15
2019-01-11T12:04:26.146Z,18.98
2019-01-11T12:06:55.782Z,18.70
2019-01-11T12:09:26.480Z,18.40
2019-01-11T12:11:56.151Z,18.60
2019-01-11T12:14:25.738Z,17.60
2019-01-11T12:16:55.411Z,18.12
2019-01-11T12:19:25.041Z,16.40
2019-01-11T12:21:54.981Z,17.35
2019-01-11T12:24:24.652Z,16.75
2019-01-11T12:26:54.305Z,16.12
2019-01-11T12:29:23.919Z,18.27
2019-01-11T12:31:53.614Z,19.37
2019-01-11T12:34:23.518Z,18.50
2019-01-11T12:36:53.225Z,19.30
2019-01-11T12:39:23.315Z,15.53
2019-01-11T12:41:53.106Z,12.65
2019-01-11T12:44:22.809Z,17.07
2019-01-11T12:46:52.761Z,17.73
2019-01-11T12:49:22.436Z,15.13
2019-01-11T12:51:54.062Z,17.62
2019-01-11T12:54:23.553Z,16.32
2019-01-11T12:56:53.171Z,14.28
2019-01-11T12:59:22.873Z,15.93
2019-01-11T13:01:52.437Z,15.38
2019-01-11T13:04:22.448Z,14.10
2019-01-11T13:06:52.276Z,16.00
2019-01-11T13:09:39.957Z,13.68
2019-01-11T13:12:09.525Z,14.23
2019-01-11T13:14:39.009Z,17.67
2019-01-11T13:17:08.641Z,17.32
2019-01-11T13:19:38.360Z,14.78
2019-01-11T13:22:08.059Z,14.30
2019-01-11T13:24:37.634Z,16.37
2019-01-11T13:27:07.211Z,15.65
2019-01-11T13:29:36.933Z,17.35
2019-01-11T13:32:06.512Z,18.37
2019-01-11T13:34:36.403Z,17.90
2019-01-11T13:37:06.510Z,17.27
2019-01-11T13:39:36.126Z,17.20
2019-01-11T13:42:23.696Z,18.35
2019-01-11T13:44:53.167Z,18.80
2019-01-11T13:47:22.832Z,17.92
2019-01-11T13:49:52.314Z,17.12
2019-01-11T13:52:21.919Z,15.78
2019-01-11T13:54:51.552Z,22.52
2019-01-11T13:57:21.096Z,17.70
2019-01-11T13:59:50.644Z,18.32
2019-01-11T14:02:20.164Z,20.25
2019-01-11T14:04:49.777Z,21.20
2019-01-11T14:07:19.267Z,25.00
2019-01-11T14:09:49.841Z,20.48
2019-01-11T14:12:19.342Z,23.30
2019-01-11T14:14:49.019Z,22.40
2019-01-11T14:17:18.551Z,20.50
2019-01-11T14:19:48.065Z,20.77
2019-01-11T14:22:17.788Z,22.05
2019-01-11T14:24:47.280Z,19.52
2019-01-11T14:27:16.812Z,19.37
2019-01-11T14:29:46.457Z,21.10
2019-01-11T14:32:16.383Z,18.62
2019-01-11T14:34:45.919Z,18.62
2019-01-11T14:37:15.520Z,19.25
2019-01-11T14:39:45.135Z,18.95
2019-01-11T14:42:14.587Z,20.65
2019-01-11T14:44:44.136Z,16.02
2019-01-11T14:47:14.041Z,16.55
2019-01-11T14:49:43.627Z,18.37
2019-01-11T14:52:13.123Z,13.50
2019-01-11T14:54:42.768Z,13.72
2019-01-11T14:57:12.259Z,15.45
2019-01-11T14:59:42.201Z,15.43
2019-01-11T15:02:11.695Z,14.47
2019-01-11T15:04:41.257Z,14.28
2019-01-11T15:07:10.757Z,12.70
2019-01-11T15:09:40.352Z,12.60
2019-01-11T15:12:10.027Z,9.78
2019-01-11T15:14:39.671Z,11.20
2019-01-11T15:17:09.382Z,12.78
2019-01-11T15:19:38.952Z,14.50
2019-01-11T15:23:13.642Z,15.72
2019-01-11T15:25:43.467Z,13.55
2019-01-11T15:28:13.030Z,10.35
2019-01-11T15:30:42.927Z,13.08
2019-01-11T15:33:12.459Z,33.53
2019-01-11T15:35:42.467Z,15.95
2019-01-11T15:38:12.151Z,15.25
2019-01-11T15:40:41.723Z,17.00
2019-01-11T15:43:11.266Z,23.42
2019-01-11T15:45:41.112Z,18.92
2019-01-11T15:48:17.576Z,25.25
2019-01-11T15:51:04.943Z,26.75
2019-01-11T15:53:38.492Z,28.12
2019-01-11T15:56:12.827Z,22.50
2019-01-11T15:58:42.417Z,22.93
2019-01-11T16:01:12.030Z,23.35
2019-01-11T16:03:41.680Z,25.70
2019-01-11T16:06:26.140Z,26.77
2019-01-11T16:09:37.186Z,27.85
2019-01-11T16:12:09.932Z,22.80
2019-01-11T16:15:19.360Z,27.50
2019-01-11T16:17:48.864Z,27.60
2019-01-11T16:20:19.564Z,29.32
2019-01-11T16:22:49.092Z,28.15
2019-01-11T16:25:18.988Z,26.57
2019-01-11T16:27:48.691Z,27.82
2019-01-11T16:30:18.427Z,26.82
2019-01-11T16:32:47.996Z,25.10
2019-01-11T16:35:17.882Z,26.00
2019-01-11T16:37:47.526Z,23.50
2019-01-11T16:40:17.091Z,25.45
2019-01-11T16:42:46.684Z,21.95
2019-01-11T16:45:16.523Z,23.20
2019-01-11T16:48:03.762Z,25.52
2019-01-11T16:50:33.632Z,26.40
2019-01-11T16:53:03.291Z,25.35
2019-01-11T16:55:32.902Z,27.85
2019-01-11T16:58:40.568Z,26.25
2019-01-11T17:01:45.912Z,28.75
2019-01-11T17:04:15.524Z,26.68
2019-01-11T17:06:45.533Z,27.37
2019-01-11T17:09:15.164Z,27.73
2019-01-11T17:11:44.704Z,24.12
2019-01-11T17:14:14.464Z,26.82
2019-01-11T17:16:43.971Z,27.37
2019-01-11T17:19:32.552Z,25.08
2019-01-11T17:22:02.258Z,28.75
2019-01-11T17:25:30.218Z,21.60
2019-01-11T17:27:59.762Z,29.18
2019-01-11T17:30:29.237Z,29.95
2019-01-11T17:32:58.987Z,27.90
2019-01-11T17:35:28.631Z,28.20
2019-01-11T17:37:58.217Z,26.40
2019-01-11T17:40:27.945Z,28.52
2019-01-11T17:42:57.613Z,32.55
2019-01-11T18:07:05.518Z,30.37
2019-01-11T18:09:35.077Z,30.12
2019-01-11T18:12:04.716Z,27.75
2019-01-11T18:14:34.236Z,29.57
2019-01-11T18:17:04.114Z,28.07
2019-01-11T18:19:33.718Z,28.02
2019-01-11T18:22:03.525Z,27.13
2019-01-11T18:28:14.359Z,24.77
2019-01-11T18:30:45.229Z,27.07
2019-01-11T18:33:14.806Z,26.42
2019-01-11T18:35:44.318Z,30.12
2019-01-11T18:38:15.967Z,25.55
2019-01-11T18:40:47.587Z,24.98
2019-01-11T18:43:17.261Z,23.42
2019-01-11T18:45:46.840Z,23.40
2019-01-11T18:48:34.465Z,20.43
2019-01-11T18:51:08.276Z,23.32
2019-01-11T18:53:37.965Z,24.20
2019-01-11T18:56:07.741Z,23.05
2019-01-11T18:58:37.387Z,28.05
2019-01-11T19:01:43.026Z,22.22
2019-01-11T19:04:12.936Z,25.75
2019-01-11T19:06:42.629Z,24.12
2019-01-11T19:09:12.153Z,21.70
2019-01-11T19:11:59.935Z,21.30
2019-01-11T19:14:29.918Z,26.65
2019-01-11T19:16:59.567Z,25.75
2019-01-11T19:19:29.274Z,21.55
2019-01-11T19:21:58.872Z,24.30
2019-01-11T19:24:28.597Z,21.70
2019-01-11T19:26:58.136Z,22.95
2019-01-11T19:29:33.783Z,23.42
2019-01-11T19:32:05.705Z,26.30
2019-01-11T19:34:35.347Z,25.60
2019-01-11T19:37:05.121Z,27.15
2019-01-11T19:39:34.787Z,24.15
2019-01-11T19:42:04.423Z,22.70
2019-01-11T19:44:35.212Z,22.77
2019-01-11T19:47:04.859Z,24.80
2019-01-11T19:49:34.556Z,23.67
2019-01-11T19:52:04.248Z,22.42
2019-01-11T19:54:34.026Z,23.75
2019-01-11T19:57:03.614Z,25.10
2019-01-11T19:59:33.415Z,18.25
2019-01-11T20:02:03.048Z,21.65
2019-01-11T20:04:32.699Z,21.87
2019-01-11T20:07:02.425Z,21.50
2019-01-11T20:09:32.512Z,23.85
2019-01-11T20:12:02.444Z,20.48
2019-01-11T20:14:31.978Z,21.80
2019-01-11T20:17:01.603Z,23.62
2019-01-11T20:19:31.216Z,22.13
2019-01-11T20:22:01.011Z,24.15
2019-01-11T20:24:31.070Z,23.52
2019-01-11T20:27:00.710Z,22.07
2019-01-11T20:29:30.316Z,24.47
2019-01-11T20:32:00.086Z,21.45
2019-01-11T20:34:29.758Z,22.17
2019-01-11T20:37:16.060Z,21.52
2019-01-11T20:39:45.610Z,21.17
2019-01-11T20:42:15.293Z,22.98
2019-01-11T20:44:44.916Z,19.42
2019-01-11T20:47:14.553Z,25.65
2019-01-11T20:49:44.150Z,22.10
2019-01-11T20:52:13.748Z,19.27
2019-01-11T20:54:43.275Z,23.38
2019-01-11T20:57:12.984Z,31.25
2019-01-11T20:59:44.597Z,16.95
2019-01-11T21:02:14.348Z,14.75
2019-01-11T21:04:44.082Z,17.15
2019-01-11T21:07:13.701Z,18.57
2019-01-11T21:09:43.419Z,16.70
2019-01-11T21:12:13.014Z,18.80
2019-01-11T21:14:42.604Z,16.30
2019-01-11T21:17:12.165Z,17.42
2019-01-11T21:19:41.821Z,17.77
2019-01-11T21:22:11.456Z,14.68
2019-01-11T21:24:41.096Z,13.60
2019-01-11T21:27:10.802Z,13.25
2019-01-11T21:29:40.402Z,14.30
2019-01-11T21:32:10.061Z,14.60
2019-01-11T21:34:39.862Z,17.50
2019-01-11T21:37:09.585Z,13.13
2019-01-11T21:39:39.350Z,13.98
2019-01-11T21:42:08.973Z,14.15
2019-01-11T21:44:38.640Z,13.85
2019-01-11T21:47:08.206Z,14.87
2019-01-11T21:49:38.157Z,13.28
2019-01-11T21:52:07.725Z,15.13
2019-01-11T21:54:55.035Z,14.85
2019-01-11T21:57:25.150Z,13.60
2019-01-11T21:59:54.780Z,15.55
2019-01-11T22:02:24.657Z,14.15
2019-01-11T22:04:54.255Z,16.02
2019-01-11T22:07:23.872Z,16.55
2019-01-11T22:09:53.464Z,15.25
2019-01-11T22:12:23.007Z,13.05
2019-01-11T22:14:52.775Z,15.05
2019-01-11T22:17:22.334Z,13.68
2019-01-11T22:19:52.028Z,13.72
2019-01-11T22:22:21.684Z,13.20
2019-01-11T22:24:51.266Z,13.80
2019-01-11T22:27:20.854Z,13.60
2019-01-11T22:29:50.381Z,14.90
2019-01-11T22:32:19.882Z,14.13
2019-01-11T22:34:49.496Z,12.95
2019-01-11T22:37:19.022Z,11.55
2019-01-11T22:39:48.686Z,12.13
2019-01-11T22:42:18.252Z,13.80
2019-01-11T22:44:48.215Z,12.93
2019-01-11T22:47:17.753Z,16.32
2019-01-11T22:49:47.280Z,14.73
2019-01-11T22:52:16.865Z,15.48
2019-01-11T22:54:46.447Z,15.40
2019-01-11T22:57:16.382Z,16.30
2019-01-11T22:59:45.901Z,15.85
2019-01-11T23:02:35.365Z,15.50
2019-01-11T23:05:07.134Z,16.57
2019-01-11T23:07:49.440Z,14.90
2019-01-11T23:10:32.554Z,17.70
2019-01-11T23:13:05.629Z,15.98
2019-01-11T23:15:40.716Z,15.55
2019-01-11T23:18:15.577Z,15.32
2019-01-11T23:20:45.633Z,14.75
2019-01-11T23:23:15.197Z,15.23
2019-01-11T23:25:44.703Z,16.00
2019-01-11T23:28:14.323Z,12.63
2019-01-11T23:30:43.874Z,18.67
2019-01-11T23:33:13.713Z,16.10
2019-01-11T23:35:43.282Z,14.15
2019-01-11T23:38:12.825Z,14.68
2019-01-11T23:40:42.428Z,14.45
2019-01-11T23:43:11.967Z,13.60
2019-01-11T23:45:41.898Z,15.10
2019-01-11T23:48:11.869Z,12.33
2019-01-11T23:50:41.384Z,13.03
2019-01-11T23:53:10.918Z,13.38
2019-01-11T23:55:40.420Z,10.53
2019-01-11T23:58:09.930Z,11.78
